createdAt,value
2023-02-18T00:00:05.120Z,101353.84
2023-02-18T00:02:52.655Z,101352.09
2023-02-18T00:05:38.338Z,101361.06
2023-02-18T00:08:23.998Z,101355.59
2023-02-18T00:11:10.166Z,101356.69
2023-02-18T00:13:58.173Z,101369.16
2023-02-18T00:16:45.082Z,101367.34
2023-02-18T00:19:30.781Z,101367.16
2023-02-18T00:22:16.343Z,101369.66
2023-02-18T00:25:01.823Z,101355.19
2023-02-18T00:27:47.391Z,101339.38
2023-02-18T00:30:33.095Z,101352.34
2023-02-18T00:33:18.884Z,101358.47
2023-02-18T00:36:07.412Z,101349.91
2023-02-18T00:38:56.173Z,101356.88
2023-02-18T00:41:42.519Z,101352.41
2023-02-18T00:44:27.909Z,101355.97
2023-02-18T00:47:13.570Z,101357.00
2023-02-18T00:49:59.216Z,101349.13
2023-02-18T00:52:44.720Z,101337.00
2023-02-18T00:55:30.633Z,101349.03
2023-02-18T00:58:16.351Z,101353.56
2023-02-18T01:01:02.252Z,101355.38
2023-02-18T01:03:48.141Z,101349.28
2023-02-18T01:06:33.803Z,101357.19
2023-02-18T01:09:19.375Z,101362.38
2023-02-18T01:12:05.132Z,101363.88
2023-02-18T01:14:50.517Z,101364.72
2023-02-18T01:17:36.088Z,101367.56
2023-02-18T01:20:21.596Z,101368.50
2023-02-18T01:23:07.341Z,101374.53
2023-02-18T01:25:52.934Z,101363.91
2023-02-18T01:28:40.514Z,101369.94
2023-02-18T01:31:26.330Z,101364.09
2023-02-18T01:34:12.054Z,101362.28
2023-02-18T01:36:57.705Z,101371.06
2023-02-18T01:39:43.467Z,101376.09
2023-02-18T01:42:30.023Z,101362.44
2023-02-18T01:45:33.446Z,101357.13
2023-02-18T01:48:23.457Z,101353.91
2023-02-18T01:51:23.645Z,101342.56
2023-02-18T01:54:14.699Z,101341.59
2023-02-18T01:57:09.316Z,101344.22
2023-02-18T01:59:57.694Z,101356.19
2023-02-18T02:02:46.479Z,101349.94
2023-02-18T02:05:33.693Z,101358.59
2023-02-18T02:08:19.090Z,101340.13
2023-02-18T02:11:11.418Z,101353.19
2023-02-18T02:14:19.027Z,101365.50
2023-02-18T02:17:11.222Z,101353.94
2023-02-18T02:20:31.041Z,101341.75
2023-02-18T02:23:41.321Z,101333.13
2023-02-18T02:26:38.248Z,101354.66
2023-02-18T02:29:32.774Z,101345.44
2023-02-18T02:32:55.738Z,101342.00
2023-02-18T02:35:59.944Z,101347.06
2023-02-18T02:39:04.851Z,101350.50
2023-02-18T02:41:59.471Z,101355.34
2023-02-18T02:45:01.817Z,101349.56
2023-02-18T02:47:54.783Z,101352.63
2023-02-18T02:50:46.823Z,101342.22
2023-02-18T02:53:34.828Z,101350.72
2023-02-18T02:56:25.189Z,101334.72
2023-02-18T02:59:18.324Z,101340.97
2023-02-18T03:02:26.590Z,101336.66
2023-02-18T03:05:30.282Z,101339.19
2023-02-18T03:08:40.706Z,101345.78
2023-02-18T03:11:33.381Z,101318.78
2023-02-18T03:14:30.563Z,101320.38
2023-02-18T03:17:20.835Z,101319.72
2023-02-18T03:20:18.317Z,101331.75
2023-02-18T03:23:10.650Z,101335.19
2023-02-18T03:25:58.234Z,101330.72
2023-02-18T03:28:46.172Z,101318.69
2023-02-18T03:31:35.493Z,101316.84
2023-02-18T03:34:28.376Z,101314.34
2023-02-18T03:37:14.948Z,101303.81
2023-02-18T03:40:01.906Z,101302.09
2023-02-18T03:42:47.303Z,101282.97
2023-02-18T03:45:32.826Z,101296.78
2023-02-18T03:48:18.589Z,101293.16
2023-02-18T03:51:04.213Z,101292.38
2023-02-18T03:53:49.870Z,101297.38
2023-02-18T03:56:36.946Z,101288.56
2023-02-18T03:59:22.545Z,101287.66
2023-02-18T04:02:07.722Z,101289.00
2023-02-18T04:04:53.491Z,101296.16
2023-02-18T04:07:39.125Z,101291.13
2023-02-18T04:10:24.447Z,101300.44
2023-02-18T04:13:09.829Z,101303.25
2023-02-18T04:15:55.435Z,101309.13
2023-02-18T04:18:41.014Z,101304.84
2023-02-18T04:21:26.616Z,101303.88
2023-02-18T04:24:11.998Z,101310.72
2023-02-18T04:26:57.715Z,101317.69
2023-02-18T04:29:43.225Z,101313.13
2023-02-18T04:32:29.154Z,101306.28
2023-02-18T04:35:15.155Z,101294.78
2023-02-18T04:38:00.417Z,101296.47
2023-02-18T04:40:45.943Z,101295.66
2023-02-18T04:43:31.315Z,101297.84
2023-02-18T04:46:16.673Z,101289.31
2023-02-18T04:49:02.431Z,101279.06
2023-02-18T04:51:48.115Z,101286.13
2023-02-18T04:54:33.651Z,101287.09
2023-02-18T04:57:19.376Z,101278.63
2023-02-18T05:00:07.019Z,101282.81
2023-02-18T05:02:52.346Z,101280.41
2023-02-18T05:05:38.076Z,101277.81
2023-02-18T05:08:23.870Z,101278.47
2023-02-18T05:11:09.919Z,101273.41
2023-02-18T05:13:55.412Z,101254.13
2023-02-18T05:16:40.650Z,101251.50
2023-02-18T05:19:26.344Z,101253.06
2023-02-18T05:22:11.693Z,101244.41
2023-02-18T05:24:57.117Z,101249.63
2023-02-18T05:27:42.878Z,101248.78
2023-02-18T05:30:28.294Z,101234.94
2023-02-18T05:33:13.932Z,101225.34
2023-02-18T05:35:59.628Z,101237.50
2023-02-18T05:38:45.190Z,101232.34
2023-02-18T05:41:30.928Z,101219.31
2023-02-18T05:44:31.339Z,101218.31
2023-02-18T05:47:16.896Z,101233.59
2023-02-18T05:50:02.827Z,101213.66
2023-02-18T05:52:48.085Z,101209.47
2023-02-18T05:55:37.708Z,101203.94
2023-02-18T05:58:23.101Z,101207.50
2023-02-18T06:01:08.670Z,101212.69
2023-02-18T06:03:54.159Z,101219.75
2023-02-18T06:06:40.035Z,101209.25
2023-02-18T06:09:25.360Z,101204.75
2023-02-18T06:12:10.797Z,101198.88
2023-02-18T06:14:56.170Z,101192.19
2023-02-18T06:17:41.941Z,101187.84
2023-02-18T06:20:27.281Z,101181.81
2023-02-18T06:23:12.740Z,101178.22
2023-02-18T06:25:58.376Z,101172.19
2023-02-18T06:28:43.692Z,101176.66
2023-02-18T06:31:29.278Z,101189.44
2023-02-18T06:34:15.060Z,101172.84
2023-02-18T06:37:01.472Z,101163.66
2023-02-18T06:39:47.251Z,101150.50
2023-02-18T06:42:32.716Z,101140.88
2023-02-18T06:45:18.043Z,101139.69
2023-02-18T06:48:03.603Z,101139.81
2023-02-18T06:50:49.778Z,101136.28
2023-02-18T06:53:35.235Z,101137.41
2023-02-18T06:56:20.838Z,101128.38
2023-02-18T06:59:06.393Z,101118.72
2023-02-18T07:01:51.837Z,101115.41
2023-02-18T07:04:37.283Z,101122.09
2023-02-18T07:07:22.933Z,101119.34
2023-02-18T07:10:08.622Z,101109.03
2023-02-18T07:12:54.032Z,101096.91
2023-02-18T07:15:40.054Z,101095.88
2023-02-18T07:18:25.429Z,101072.50
2023-02-18T07:21:11.251Z,101067.97
2023-02-18T07:23:56.596Z,101067.94
2023-02-18T07:26:42.112Z,101071.72
2023-02-18T07:29:27.680Z,101058.66
2023-02-18T07:32:13.961Z,101047.91
2023-02-18T07:34:59.583Z,101048.84
2023-02-18T07:37:49.143Z,101038.22
2023-02-18T07:40:34.474Z,101024.34
2023-02-18T07:43:20.843Z,101024.91
2023-02-18T07:46:07.142Z,101024.41
2023-02-18T07:48:52.837Z,101012.75
2023-02-18T07:51:40.211Z,101007.16
2023-02-18T07:54:26.192Z,100992.16
2023-02-18T07:57:11.516Z,100989.78
2023-02-18T07:59:57.239Z,100990.59
2023-02-18T08:02:42.524Z,100979.75
2023-02-18T08:05:28.256Z,100990.22
2023-02-18T08:08:15.433Z,100977.22
2023-02-18T08:11:13.384Z,100975.13
2023-02-18T08:14:03.934Z,100956.88
2023-02-18T08:16:49.715Z,100953.19
2023-02-18T08:19:35.287Z,100944.75
2023-02-18T08:22:20.849Z,100938.88
2023-02-18T08:25:06.888Z,100915.66
2023-02-18T08:27:52.605Z,100920.53
2023-02-18T08:30:38.374Z,100903.25
2023-02-18T08:33:25.211Z,100893.59
2023-02-18T08:36:11.015Z,100877.75
2023-02-18T08:38:57.538Z,100872.19
2023-02-18T08:41:42.894Z,100865.34
2023-02-18T08:44:28.585Z,100862.16
2023-02-18T08:48:17.200Z,100863.16
2023-02-18T08:50:20.851Z,100854.31
2023-02-18T08:53:06.196Z,100843.31
2023-02-18T08:55:51.922Z,100855.25
2023-02-18T08:58:37.975Z,100846.28
2023-02-18T09:01:23.732Z,100840.41
2023-02-18T09:04:08.988Z,100839.44
2023-02-18T09:06:54.446Z,100840.47
2023-02-18T09:09:39.832Z,100832.56
2023-02-18T09:12:25.475Z,100828.22
2023-02-18T09:15:11.222Z,100824.88
2023-02-18T09:17:56.532Z,100809.06
2023-02-18T09:20:42.355Z,100794.34
2023-02-18T09:23:29.127Z,100791.22
2023-02-18T09:26:16.890Z,100781.47
2023-02-18T09:29:02.492Z,100785.16
2023-02-18T09:31:47.805Z,100782.59
2023-02-18T09:34:34.292Z,100769.75
2023-02-18T09:37:19.981Z,100762.41
2023-02-18T09:40:06.064Z,100746.00
2023-02-18T09:42:51.577Z,100750.25
2023-02-18T09:45:38.210Z,100751.25
2023-02-18T09:48:32.990Z,100738.59
2023-02-18T09:51:19.306Z,100731.72
2023-02-18T09:54:05.027Z,100730.22
2023-02-18T09:56:51.811Z,100729.44
2023-02-18T09:59:37.323Z,100713.50
2023-02-18T10:02:24.292Z,100713.44
2023-02-18T10:05:15.316Z,100700.19
2023-02-18T10:08:19.631Z,100702.31
2023-02-18T10:11:12.304Z,100702.09
2023-02-18T10:14:00.954Z,100697.31
2023-02-18T10:16:49.154Z,100696.34
2023-02-18T10:19:38.512Z,100695.59
2023-02-18T10:22:25.814Z,100677.22
2023-02-18T10:25:18.903Z,100677.41
2023-02-18T10:28:04.404Z,100660.44
2023-02-18T10:30:58.440Z,100666.69
2023-02-18T10:34:03.932Z,100661.09
2023-02-18T10:37:18.129Z,100650.44
2023-02-18T10:40:25.324Z,100643.16
2023-02-18T10:43:29.366Z,100639.72
2023-02-18T10:46:27.874Z,100635.94
2023-02-18T10:49:55.413Z,100626.91
2023-02-18T10:52:47.884Z,100628.00
2023-02-18T10:55:36.244Z,100613.09
2023-02-18T10:58:34.626Z,100622.38
2023-02-18T11:01:20.935Z,100624.38
2023-02-18T11:04:18.031Z,100606.19
2023-02-18T11:07:06.341Z,100613.34
2023-02-18T11:09:57.670Z,100605.41
2023-02-18T11:12:49.088Z,100591.53
2023-02-18T11:15:35.831Z,100594.41
2023-02-18T11:18:36.513Z,100600.41
2023-02-18T11:21:26.558Z,100587.16
2023-02-18T11:24:16.171Z,100578.34
2023-02-18T11:27:01.585Z,100592.09
2023-02-18T11:29:51.561Z,100573.44
2023-02-18T11:32:37.567Z,100562.66
2023-02-18T11:35:27.200Z,100571.84
2023-02-18T11:38:26.154Z,100567.66
2023-02-18T11:41:15.117Z,100574.34
2023-02-18T11:44:02.169Z,100558.16
2023-02-18T11:46:58.625Z,100567.22
2023-02-18T11:49:58.912Z,100554.53
2023-02-18T11:52:49.179Z,100544.03
2023-02-18T11:55:34.882Z,100544.50
2023-02-18T11:58:20.242Z,100548.22
2023-02-18T12:01:12.955Z,100542.47
2023-02-18T12:04:17.165Z,100539.41
2023-02-18T12:07:05.400Z,100533.16
2023-02-18T12:09:56.400Z,100536.84
2023-02-18T12:12:48.118Z,100530.75
2023-02-18T12:16:14.496Z,100536.53
2023-02-18T12:19:46.009Z,100528.31
2023-02-18T12:22:42.749Z,100534.47
2023-02-18T12:25:37.557Z,100552.03
2023-02-18T12:28:47.430Z,100544.78
2023-02-18T12:31:47.851Z,100552.16
2023-02-18T12:34:47.339Z,100552.03
2023-02-18T12:37:50.860Z,100561.00
2023-02-18T12:40:57.529Z,100557.06
2023-02-18T12:43:58.374Z,100563.13
2023-02-18T12:46:55.038Z,100581.44
2023-02-18T12:50:17.281Z,100572.03
2023-02-18T12:53:41.706Z,100560.00
2023-02-18T12:56:39.032Z,100556.00
2023-02-18T12:59:45.357Z,100551.03
2023-02-18T13:02:45.550Z,100566.81
2023-02-18T13:05:55.258Z,100552.25
2023-02-18T13:09:07.015Z,100558.06
2023-02-18T13:12:17.891Z,100554.81
2023-02-18T13:15:13.507Z,100565.72
2023-02-18T13:18:03.262Z,100568.03
2023-02-18T13:20:56.254Z,100590.78
2023-02-18T13:23:53.579Z,100590.88
2023-02-18T13:26:41.667Z,100587.63
2023-02-18T13:29:44.698Z,100592.19
2023-02-18T13:33:01.274Z,100601.38
2023-02-18T13:36:12.473Z,100596.00
2023-02-18T13:39:11.369Z,100594.16
2023-02-18T13:42:24.613Z,100603.34
2023-02-18T13:45:33.302Z,100607.28
2023-02-18T13:48:26.776Z,100621.16
2023-02-18T13:51:14.246Z,100621.66
2023-02-18T13:54:17.763Z,100633.97
2023-02-18T13:57:25.783Z,100635.06
2023-02-18T14:00:25.220Z,100632.47
2023-02-18T14:03:42.848Z,100648.13
2023-02-18T14:06:34.268Z,100644.47
2023-02-18T14:09:25.597Z,100653.34
2023-02-18T14:12:25.640Z,100649.13
2023-02-18T14:15:19.885Z,100647.78
2023-02-18T14:18:14.026Z,100645.06
2023-02-18T14:21:05.535Z,100660.81
2023-02-18T14:23:53.572Z,100672.78
2023-02-18T14:26:48.420Z,100672.88
2023-02-18T14:29:33.888Z,100661.13
2023-02-18T14:32:21.025Z,100683.56
2023-02-18T14:35:25.556Z,100683.22
2023-02-18T14:38:33.642Z,100681.91
2023-02-18T14:41:55.856Z,100689.78
2023-02-18T14:45:03.066Z,100697.88
2023-02-18T14:48:18.810Z,100694.56
2023-02-18T14:51:05.566Z,100712.38
2023-02-18T14:53:51.599Z,100713.94
2023-02-18T14:56:53.260Z,100726.16
2023-02-18T14:59:41.570Z,100727.44
2023-02-18T15:02:31.022Z,100707.63
2023-02-18T15:05:20.472Z,100729.13
2023-02-18T15:08:15.420Z,100736.59
2023-02-18T15:11:07.438Z,100737.53
2023-02-18T15:13:53.189Z,100755.03
2023-02-18T15:16:39.615Z,100763.47
2023-02-18T15:19:28.733Z,100763.78
2023-02-18T15:22:20.082Z,100767.91
2023-02-18T15:25:06.420Z,100766.22
2023-02-18T15:27:52.452Z,100771.34
2023-02-18T15:30:39.076Z,100775.78
2023-02-18T15:33:25.069Z,100788.66
2023-02-18T15:36:14.702Z,100791.19
2023-02-18T15:39:00.528Z,100789.66
2023-02-18T15:41:47.077Z,100808.38
2023-02-18T15:44:35.829Z,100810.66
2023-02-18T15:47:22.097Z,100807.31
2023-02-18T15:50:26.948Z,100814.63
2023-02-18T15:53:16.333Z,100831.09
2023-02-18T15:56:07.081Z,100833.78
2023-02-18T15:59:07.589Z,100818.84
2023-02-18T16:01:55.898Z,100831.31
2023-02-18T16:04:45.697Z,100844.69
2023-02-18T16:07:38.116Z,100847.75
2023-02-18T16:10:33.163Z,100844.69
2023-02-18T16:13:19.218Z,100848.66
2023-02-18T16:16:05.800Z,100846.97
2023-02-18T16:18:51.278Z,100849.06
2023-02-18T16:21:39.790Z,100849.91
2023-02-18T16:24:28.587Z,100864.09
2023-02-18T16:27:16.673Z,100872.63
2023-02-18T16:30:15.473Z,100877.59
2023-02-18T16:33:01.391Z,100887.81
2023-02-18T16:35:50.258Z,100885.34
2023-02-18T16:38:36.416Z,100889.63
2023-02-18T16:41:21.900Z,100897.59
2023-02-18T16:44:13.039Z,100904.75
2023-02-18T16:46:58.693Z,100913.53
2023-02-18T16:49:49.314Z,100920.47
2023-02-18T16:52:34.695Z,100915.56
2023-02-18T16:55:23.230Z,100924.34
2023-02-18T16:58:08.626Z,100914.59
2023-02-18T17:00:54.378Z,100923.63
2023-02-18T17:03:39.764Z,100923.94
2023-02-18T17:06:25.456Z,100917.53
2023-02-18T17:09:17.681Z,100923.47
2023-02-18T17:12:03.485Z,100934.28
2023-02-18T17:14:48.962Z,100938.81
2023-02-18T17:17:34.598Z,100937.38
2023-02-18T17:20:20.489Z,100942.22
2023-02-18T17:23:05.857Z,100934.44
2023-02-18T17:25:52.918Z,100943.28
2023-02-18T17:28:38.445Z,100948.75
2023-02-18T17:31:29.732Z,100953.88
2023-02-18T17:34:26.489Z,100962.88
2023-02-18T17:37:14.764Z,100968.00
2023-02-18T17:40:00.092Z,100974.56
2023-02-18T17:42:45.768Z,100989.41
2023-02-18T17:45:36.930Z,100997.88
2023-02-18T17:48:23.295Z,100999.31
2023-02-18T17:51:22.766Z,101006.81
2023-02-18T17:54:17.226Z,100993.84
2023-02-18T17:57:02.885Z,100994.16
2023-02-18T17:59:48.464Z,101012.56
2023-02-18T18:02:33.794Z,101020.88
2023-02-18T18:05:28.269Z,101024.22
2023-02-18T18:08:14.130Z,101025.06
2023-02-18T18:11:01.046Z,101033.94
2023-02-18T18:13:46.623Z,101039.03
2023-02-18T18:16:32.277Z,101038.25
2023-02-18T18:19:17.661Z,101040.50
2023-02-18T18:22:04.179Z,101059.00
2023-02-18T18:24:50.203Z,101058.53
2023-02-18T18:27:35.701Z,101056.28
2023-02-18T18:30:29.985Z,101056.50
2023-02-18T18:33:27.739Z,101051.59
2023-02-18T18:36:13.377Z,101058.34
2023-02-18T18:38:59.116Z,101071.84
2023-02-18T18:41:44.571Z,101082.38
2023-02-18T18:44:30.194Z,101085.22
2023-02-18T18:47:15.977Z,101083.06
2023-02-18T18:50:01.332Z,101092.25
2023-02-18T18:52:47.573Z,101097.22
2023-02-18T18:55:38.305Z,101108.13
2023-02-18T18:58:26.904Z,101101.69
2023-02-18T19:01:18.118Z,101097.69
2023-02-18T19:04:03.854Z,101105.94
2023-02-18T19:06:49.368Z,101114.28
2023-02-18T19:09:34.869Z,101110.28
2023-02-18T19:12:20.500Z,101117.13
2023-02-18T19:15:06.159Z,101107.72
2023-02-18T19:17:54.107Z,101110.28
2023-02-18T19:20:41.431Z,101106.69
2023-02-18T19:23:28.212Z,101098.25
2023-02-18T19:26:15.792Z,101117.31
2023-02-18T19:29:01.219Z,101116.66
2023-02-18T19:31:46.591Z,101123.19
2023-02-18T19:34:32.053Z,101121.19
2023-02-18T19:37:17.403Z,101125.78
2023-02-18T19:40:04.147Z,101131.81
2023-02-18T19:42:50.053Z,101136.34
2023-02-18T19:45:42.502Z,101145.31
2023-02-18T19:48:28.558Z,101152.16
2023-02-18T19:51:14.504Z,101136.78
2023-02-18T19:54:00.382Z,101154.06
2023-02-18T19:56:45.973Z,101147.22
2023-02-18T19:59:31.542Z,101155.00
2023-02-18T20:02:20.966Z,101164.66
2023-02-18T20:05:07.390Z,101154.69
2023-02-18T20:07:52.777Z,101151.47
2023-02-18T20:10:38.273Z,101156.16
2023-02-18T20:13:23.941Z,101158.47
2023-02-18T20:16:09.880Z,101167.28
2023-02-18T20:18:55.524Z,101164.00
2023-02-18T20:21:40.954Z,101176.81
2023-02-18T20:24:31.271Z,101172.75
2023-02-18T20:27:17.440Z,101182.97
2023-02-18T20:30:07.718Z,101182.84
2023-02-18T20:32:53.516Z,101179.25
2023-02-18T20:35:39.114Z,101185.63
2023-02-18T20:38:24.767Z,101189.66
2023-02-18T20:41:14.242Z,101187.13
2023-02-18T20:44:01.866Z,101185.50
2023-02-18T20:46:49.119Z,101186.25
2023-02-18T20:49:35.457Z,101176.44
2023-02-18T20:52:20.913Z,101182.31
2023-02-18T20:55:06.493Z,101175.94
2023-02-18T20:57:51.842Z,101180.94
2023-02-18T21:00:37.287Z,101179.28
2023-02-18T21:03:22.890Z,101179.41
2023-02-18T21:06:15.408Z,101186.25
2023-02-18T21:09:01.044Z,101187.94
2023-02-18T21:11:46.571Z,101179.31
2023-02-18T21:14:32.039Z,101195.56
2023-02-18T21:17:17.405Z,101188.72
2023-02-18T21:20:03.816Z,101199.75
2023-02-18T21:22:49.520Z,101189.44
2023-02-18T21:25:36.265Z,101196.44
2023-02-18T21:28:21.592Z,101193.16
2023-02-18T21:31:18.898Z,101188.00
2023-02-18T21:34:05.948Z,101188.00
2023-02-18T21:36:51.558Z,101185.56
2023-02-18T21:39:36.971Z,101181.59
2023-02-18T21:42:22.445Z,101183.94
2023-02-18T21:45:08.781Z,101176.28
2023-02-18T21:47:54.227Z,101183.94
2023-02-18T21:50:39.494Z,101175.44
2023-02-18T21:53:25.236Z,101165.09
2023-02-18T21:56:11.675Z,101173.00
2023-02-18T21:58:57.094Z,101172.84
2023-02-18T22:01:42.778Z,101164.88
2023-02-18T22:04:30.620Z,101165.66
2023-02-18T22:07:17.468Z,101170.84
2023-02-18T22:10:02.790Z,101166.00
2023-02-18T22:12:48.485Z,101171.22
2023-02-18T22:15:33.895Z,101165.84
2023-02-18T22:18:19.727Z,101181.91
2023-02-18T22:21:08.969Z,101175.06
2023-02-18T22:23:54.924Z,101182.91
2023-02-18T22:26:41.306Z,101181.69
2023-02-18T22:29:27.988Z,101186.28
2023-02-18T22:32:14.146Z,101168.97
2023-02-18T22:34:59.876Z,101172.13
2023-02-18T22:37:45.636Z,101186.72
2023-02-18T22:40:31.123Z,101193.88
2023-02-18T22:43:16.678Z,101187.84
2023-02-18T22:46:06.540Z,101178.38
2023-02-18T22:48:52.816Z,101193.19
2023-02-18T22:51:40.556Z,101190.88
2023-02-18T22:54:26.326Z,101197.59
2023-02-18T22:57:11.657Z,101181.19
2023-02-18T22:59:57.374Z,101193.28
2023-02-18T23:02:42.852Z,101189.31
2023-02-18T23:05:28.099Z,101194.31
2023-02-18T23:08:13.776Z,101184.34
2023-02-18T23:11:01.128Z,101186.66
2023-02-18T23:14:06.242Z,101173.38
2023-02-18T23:17:13.954Z,101164.69
2023-02-18T23:19:59.453Z,101173.63
2023-02-18T23:22:44.820Z,101173.78
2023-02-18T23:25:32.175Z,101165.75
2023-02-18T23:28:17.391Z,101167.53
2023-02-18T23:31:03.203Z,101156.25
2023-02-18T23:33:50.509Z,101160.63
2023-02-18T23:36:36.616Z,101154.25
2023-02-18T23:39:22.800Z,101152.88
2023-02-18T23:42:08.354Z,101153.75
2023-02-18T23:44:54.997Z,101154.78
2023-02-18T23:47:40.435Z,101147.75
2023-02-18T23:50:26.077Z,101144.25
2023-02-18T23:53:11.498Z,101145.25
2023-02-18T23:56:01.723Z,101154.09
2023-02-18T23:58:54.690Z,101147.66
